Impacts TAF Board INFO
FOR SITUATIONAL AWARENESS. NOT TO BE USED FOR FLIGHT PLANNING PURPOSES.
IDs:

KPHL - Philadelphia Intl, PA, US

Issued at 2324 UTC 18 Nov 2017
Updated at 0059 UTC 19 Nov 2017
Potential Impact None Slight Moderate High
Time0054Z 19/01Z 19/02Z 19/03Z 19/04Z 19/05Z 19/06Z 19/07Z 19/08Z 19/09Z 19/10Z 19/11Z 19/12Z 19/13Z>>
Type OBS PRVL
  [TEMP]  
PRVL
  [TEMP]  
PRVL
  [TEMP]  
PRVL PRVL PRVL PRVL PRVL PRVL PRVL PRVL PRVL PRVL
VIS 10 >6
  [5]  
>6
  [5]  
>6
  [5]  
>6 >6 >6 5 5 5 5 >6 >6 >6
CIG 90 70
  [35]  
70
  [35]  
70
  [35]  
35 35 35 15 15 15 15 25 25 40
Cover OVC OVC
  [OVC]  
OVC
  [OVC]  
OVC
  [OVC]  
OVC OVC OVC OVC OVC OVC OVC OVC OVC BKN
FltCat VFR VFR
  [MVFR]  
VFR
  [MVFR]  
VFR
  [MVFR]  
VFR VFR VFR MVFR MVFR MVFR MVFR MVFR MVFR VFR
WX -RA -SHRA
  [SHRA]  
-SHRA
  [SHRA]  
-SHRA
  [SHRA]  
VCSH VCSH VCSH SHRA SHRA SHRA SHRA VCSH VCSH --
WDir 190 180
[180]
180
[180]
180
[180]
200 200 200 200 200 200 200 240 240 270
WSpd 7 9
  [9]  
9
  [9]  
9
  [9]  
15 15 15 18 18 18 18 20 20 22
WGst -- --
  [--]  
--
  [--]  
--
  [--]  
25 25 25 28 28 28 28 32 32 38

Raw TAF
KPHL 182324Z 1900/2006 18009KT P6SM -SHRA OVC070
  TEMPO 1901/1904 5SM SHRA OVC035
  FM190400 20015G25KT P6SM VCSH OVC035 WS020/21040KT
  FM190700 20018G28KT 5SM SHRA SCT008 OVC015
  FM191100 24020G32KT P6SM VCSH OVC025
  FM191300 27022G38KT P6SM BKN040
  FM191800 29020G32KT P6SM SCT040


Raw METAR
KPHL 190054Z 19007KT 10SM -RA FEW038 FEW050 BKN090 OVC130 11/06 A2954 RMK AO2 RAB21 SLP004 P0000 T01110061
KPHL 182354Z 17007KT 10SM FEW038 FEW050 BKN090 OVC130 11/06 A2958 RMK AO2 RAE47 SLP016 P0000 60003 T01060061 10122 20106 58024
KPHL 182254Z 18007KT 10SM -RA SCT040 BKN070 OVC090 11/06 A2962 RMK AO2 SLP031 P0003 T01060061
KPHL 182223Z 18007KT 9SM -RA SCT040 BKN075 OVC090 12/06 A2963 RMK AO2 P0002 T01170056
KPHL 182154Z 18007KT 10SM -RA FEW040 SCT070 BKN090 OVC140 12/04 A2963 RMK AO2 RAB43 SLP034 P0000 T01170044

METAR Board
Radar Display
Forecast Discussion

FOR SITUATIONAL AWARENESS. NOT TO BE USED FOR FLIGHT PLANNING PURPOSES.